createdAt,value
2019-04-22T17:37:47.269Z,34.61
2019-04-22T17:38:20.992Z,34.30
2019-04-22T17:38:44.051Z,34.30
2019-04-22T17:39:13.127Z,34.46
2019-04-22T17:39:31.557Z,34.62
2019-04-22T17:39:52.309Z,34.66
2019-04-22T17:40:29.031Z,34.70
2019-04-22T17:40:44.997Z,34.73
2019-04-22T17:41:07.728Z,34.70
2019-04-22T17:41:24.226Z,34.57
2019-04-22T17:41:56.802Z,34.65
2019-04-22T17:42:22.181Z,34.63
2019-04-22T17:42:45.256Z,34.48
2019-04-22T17:43:14.115Z,34.24
2019-04-22T17:43:42.036Z,34.02
2019-04-22T17:44:00.346Z,33.76
2019-04-22T17:44:28.551Z,33.50
2019-04-22T17:44:53.221Z,33.30
2019-04-22T17:45:16.858Z,32.99
2019-04-22T17:46:35.983Z,31.95
2019-04-22T17:47:23.434Z,31.74
2019-04-22T17:49:45.726Z,30.07
2019-04-22T17:50:08.303Z,30.04
2019-04-22T17:50:27.806Z,29.99
2019-04-22T17:51:31.472Z,29.84
2019-04-22T17:52:12.492Z,29.73
2019-04-22T17:53:01.499Z,29.64
2019-04-22T17:53:08.628Z,29.47
2019-04-22T17:53:29.420Z,29.31
2019-04-22T17:53:46.654Z,29.13
2019-04-22T17:54:07.036Z,29.04
2019-04-22T17:54:30.803Z,28.92
2019-04-22T17:55:12.849Z,28.85
2019-04-22T17:55:44.434Z,28.72
2019-04-22T17:56:10.605Z,28.75
2019-04-22T17:56:27.636Z,28.69
2019-04-22T17:56:48.645Z,28.57
2019-04-22T17:57:09.924Z,28.45
2019-04-22T17:57:33.100Z,28.30
2019-04-22T17:58:05.643Z,28.18
2019-04-22T17:58:25.614Z,28.08
2019-04-22T17:58:48.351Z,28.02
2019-04-22T17:59:11.728Z,27.96
2019-04-22T17:59:36.400Z,27.87
2019-04-22T17:59:51.817Z,27.83
2019-04-22T18:00:14.365Z,27.79
2019-04-22T18:00:36.560Z,27.67
2019-04-22T18:01:11.992Z,27.57
2019-04-22T18:01:32.620Z,27.50
2019-04-22T18:01:56.669Z,27.45
2019-04-22T18:02:22.142Z,27.40
2019-04-22T18:02:43.322Z,27.27
2019-04-22T18:03:01.834Z,27.24
2019-04-22T18:03:21.308Z,27.23
2019-04-22T18:03:43.371Z,27.23
2019-04-22T18:04:02.525Z,27.14
2019-04-22T18:04:20.847Z,27.11
2019-04-22T18:04:50.805Z,27.14
2019-04-22T18:05:09.449Z,27.13
2019-04-22T18:05:35.906Z,27.04
2019-04-22T18:05:58.238Z,26.97
2019-04-22T18:06:44.096Z,26.88
2019-04-22T18:07:03.736Z,26.87
2019-04-22T18:07:31.260Z,26.80
2019-04-22T18:07:43.040Z,26.86
2019-04-22T18:08:10.045Z,26.89
2019-04-22T18:08:29.065Z,26.88
2019-04-22T18:08:50.708Z,26.81
2019-04-22T18:09:19.421Z,26.68
2019-04-22T18:10:10.743Z,26.58
2019-04-22T18:10:33.012Z,26.52
2019-04-22T18:10:49.124Z,26.51
2019-04-22T18:11:20.900Z,26.44
2019-04-22T18:11:44.634Z,26.49
2019-04-22T18:12:07.345Z,26.46
2019-04-22T18:12:27.662Z,26.41
2019-04-22T18:12:53.529Z,26.42
2019-04-22T18:13:15.016Z,26.35
2019-04-22T18:13:42.519Z,26.31
2019-04-22T18:14:03.169Z,26.32
2019-04-22T18:14:41.129Z,26.29
2019-04-22T18:15:02.635Z,26.22
2019-04-22T18:15:04.338Z,26.16
2019-04-22T18:15:27.328Z,26.12
2019-04-22T18:15:48.390Z,26.00
2019-04-22T18:16:16.262Z,26.00
2019-04-22T18:16:37.136Z,25.91
2019-04-22T18:17:01.903Z,25.90
2019-04-22T18:17:23.739Z,25.93
2019-04-22T18:17:44.980Z,25.91
2019-04-22T18:18:12.484Z,25.92
2019-04-22T18:18:31.409Z,25.83
2019-04-22T18:18:53.234Z,25.82
2019-04-22T18:19:15.697Z,25.79
2019-04-22T18:19:39.627Z,25.76
2019-04-22T18:19:59.495Z,25.80
2019-04-22T18:20:27.173Z,25.74
2019-04-22T18:20:45.771Z,25.69
2019-04-22T18:21:11.968Z,25.74
2019-04-22T18:21:30.314Z,25.68
2019-04-22T18:21:51.746Z,25.66
2019-04-22T18:22:19.739Z,25.62
2019-04-22T18:22:38.176Z,25.60
2019-04-22T18:22:57.034Z,25.66
2019-04-22T18:23:19.841Z,25.62
2019-04-22T18:23:44.754Z,25.59
2019-04-22T18:24:08.940Z,25.61
2019-04-22T18:24:28.385Z,25.60
2019-04-22T18:24:59.377Z,25.55
2019-04-22T18:25:24.591Z,25.57
2019-04-22T18:25:55.203Z,25.47
2019-04-22T18:26:14.861Z,25.47
2019-04-22T18:26:38.903Z,25.43
2019-04-22T18:27:15.252Z,25.47
2019-04-22T18:28:37.891Z,25.33
2019-04-22T18:28:54.379Z,25.33
2019-04-22T18:29:17.459Z,25.36
2019-04-22T18:29:43.161Z,25.29
2019-04-22T18:30:02.251Z,25.23
2019-04-22T18:30:20.083Z,25.19
2019-04-22T18:30:47.575Z,25.21
2019-04-22T18:31:12.065Z,25.16
2019-04-22T18:31:31.586Z,25.16
2019-04-22T18:31:51.180Z,25.14
2019-04-22T18:32:16.802Z,25.11
2019-04-22T18:32:49.325Z,25.10
2019-04-22T18:33:07.144Z,25.06
2019-04-22T18:33:35.150Z,25.08
2019-04-22T18:33:50.410Z,25.05
2019-04-22T18:34:10.217Z,25.04
2019-04-22T18:34:35.123Z,25.00
2019-04-22T18:35:00.505Z,24.98
2019-04-22T18:35:32.339Z,24.93
2019-04-22T18:35:54.031Z,24.90
2019-04-22T18:36:14.089Z,24.85
2019-04-22T18:36:38.767Z,24.81
2019-04-22T18:37:00.737Z,24.81
2019-04-22T18:37:22.455Z,24.81
2019-04-22T18:37:59.188Z,24.78
2019-04-22T18:38:27.992Z,24.76
2019-04-22T18:38:46.805Z,24.79
2019-04-22T18:39:04.931Z,24.75
2019-04-22T18:39:27.200Z,24.77
2019-04-22T18:39:53.037Z,24.77
2019-04-22T18:40:14.937Z,24.78
2019-04-22T18:40:34.813Z,24.74
2019-04-22T18:40:59.663Z,24.70
2019-04-22T18:41:17.815Z,24.68
2019-04-22T18:41:48.825Z,24.67
2019-04-22T18:42:07.612Z,24.60
2019-04-22T18:42:26.920Z,24.58
2019-04-22T18:42:56.614Z,24.64
2019-04-22T18:43:22.839Z,24.64
2019-04-22T18:43:47.848Z,24.63
2019-04-22T18:44:09.606Z,24.64
2019-04-22T18:44:29.587Z,24.65
2019-04-22T18:44:55.593Z,24.64
2019-04-22T18:45:30.065Z,24.62
2019-04-22T18:46:05.435Z,24.55
2019-04-22T18:46:28.872Z,24.54
2019-04-22T18:46:50.410Z,24.54
2019-04-22T18:47:10.690Z,24.52
2019-04-22T18:47:28.827Z,24.45
2019-04-22T18:47:52.227Z,24.42
2019-04-22T18:48:12.205Z,24.45
2019-04-22T18:48:45.385Z,24.43
2019-04-22T18:49:06.931Z,24.40
2019-04-22T18:49:30.680Z,24.47
2019-04-22T18:49:49.371Z,24.53
2019-04-22T18:50:23.027Z,24.58
2019-04-22T18:50:58.090Z,24.60
2019-04-22T18:51:20.355Z,24.56
2019-04-22T18:52:22.749Z,24.45
2019-04-22T18:53:03.440Z,24.48
2019-04-22T18:53:29.755Z,24.41
2019-04-22T18:53:53.716Z,24.37
2019-04-22T18:54:18.595Z,24.40
2019-04-22T18:54:55.202Z,24.42
2019-04-22T18:55:30.931Z,24.38
2019-04-22T18:56:19.251Z,24.37
2019-04-22T18:56:43.506Z,24.24
2019-04-22T18:57:05.318Z,24.33
2019-04-22T18:57:27.416Z,24.35
2019-04-22T18:58:02.683Z,24.36
2019-04-22T18:58:22.770Z,24.36
2019-04-22T18:58:44.886Z,24.39
2019-04-22T18:59:07.699Z,24.44
2019-04-22T18:59:25.837Z,24.52
2019-04-22T18:59:46.449Z,24.57
2019-04-22T19:00:08.466Z,24.60
2019-04-22T19:00:41.738Z,24.66
2019-04-22T19:01:04.012Z,24.73
2019-04-22T19:01:25.965Z,24.68
2019-04-22T19:01:48.103Z,24.64
2019-04-22T19:02:15.377Z,24.63
2019-04-22T19:02:37.100Z,24.68
2019-04-22T19:03:06.366Z,24.74
2019-04-22T19:03:24.262Z,24.73
2019-04-22T19:03:54.261Z,24.65
2019-04-22T19:04:15.193Z,24.60
2019-04-22T19:04:40.735Z,24.57
2019-04-22T19:05:01.031Z,24.61
2019-04-22T19:05:26.621Z,24.64
2019-04-22T19:06:00.966Z,24.67
2019-04-22T19:06:34.065Z,24.68
2019-04-22T19:06:46.115Z,24.69
2019-04-22T19:07:15.275Z,24.70
2019-04-22T19:07:35.605Z,24.74
2019-04-22T19:07:59.150Z,24.79
2019-04-22T19:08:23.054Z,24.79
2019-04-22T19:08:43.039Z,24.80
2019-04-22T19:09:12.016Z,24.75
2019-04-22T19:09:38.289Z,24.77
2019-04-22T19:10:27.412Z,24.79
2019-04-22T19:10:51.782Z,24.74
2019-04-22T19:11:08.501Z,24.71
2019-04-22T19:11:41.366Z,24.71
2019-04-22T19:12:03.168Z,24.70
2019-04-22T19:12:23.043Z,24.69
2019-04-22T19:12:41.897Z,24.69
2019-04-22T19:13:31.415Z,24.66
2019-04-22T19:13:54.230Z,24.60
2019-04-22T19:14:15.671Z,24.55
2019-04-22T19:14:35.322Z,24.59
2019-04-22T19:14:59.697Z,24.55
2019-04-22T19:15:19.052Z,24.53
2019-04-22T19:15:42.896Z,24.52
2019-04-22T19:16:24.606Z,24.52
2019-04-22T19:16:39.915Z,24.50
2019-04-22T19:16:53.363Z,24.48
2019-04-22T19:17:30.091Z,24.48
2019-04-22T19:17:48.578Z,24.52
2019-04-22T19:18:03.938Z,24.50
2019-04-22T19:18:31.776Z,24.49
2019-04-22T19:18:50.233Z,24.49
2019-04-22T19:19:25.580Z,24.49
2019-04-22T19:19:33.305Z,24.52
2019-04-22T19:20:02.761Z,24.51
2019-04-22T19:20:27.517Z,24.51
2019-04-22T19:20:42.386Z,24.52
2019-04-22T19:21:07.932Z,24.53
2019-04-22T19:21:26.001Z,24.54
2019-04-22T19:21:47.988Z,24.56
2019-04-22T19:22:16.251Z,24.53
2019-04-22T19:22:47.240Z,24.54
2019-04-22T19:23:06.931Z,24.56
2019-04-22T19:23:22.647Z,24.52
2019-04-22T19:23:44.920Z,24.55
2019-04-22T19:24:04.048Z,24.57
2019-04-22T19:24:29.065Z,24.61
2019-04-22T19:24:51.777Z,24.58
2019-04-22T19:25:11.705Z,24.55
2019-04-22T19:25:36.881Z,24.52
2019-04-22T19:26:08.322Z,24.48
2019-04-22T19:26:35.762Z,24.47
2019-04-22T19:26:55.833Z,24.43
2019-04-22T19:27:16.167Z,24.41
2019-04-22T19:27:39.537Z,24.40
2019-04-22T19:28:01.219Z,24.39
2019-04-22T19:28:29.132Z,24.40
2019-04-22T19:28:47.934Z,24.38
2019-04-22T19:29:08.888Z,24.40
2019-04-22T19:29:33.611Z,24.36
2019-04-22T19:29:57.401Z,24.38
2019-04-22T19:30:16.411Z,24.36
2019-04-22T19:30:43.006Z,24.35
2019-04-22T19:31:09.618Z,24.34
2019-04-22T19:31:31.363Z,24.34
2019-04-22T19:31:51.322Z,24.36
2019-04-22T19:32:14.150Z,24.34
2019-04-22T19:34:09.326Z,24.24
2019-04-22T19:34:31.737Z,24.26
2019-04-22T19:34:54.172Z,24.25
2019-04-22T19:35:17.408Z,24.29
2019-04-22T19:35:34.924Z,24.30
2019-04-22T19:36:11.309Z,24.30
2019-04-22T19:36:26.017Z,24.34
2019-04-22T19:36:59.000Z,24.34
2019-04-22T19:37:29.000Z,24.35
2019-04-22T19:42:54.753Z,24.50
2019-04-22T19:44:05.815Z,24.52
2019-04-22T19:44:26.002Z,24.31
2019-04-22T19:44:53.204Z,24.26
2019-04-22T19:45:14.663Z,24.26
2019-04-22T19:45:32.764Z,24.27
2019-04-22T19:46:00.585Z,24.32
2019-04-22T19:46:19.411Z,24.34
2019-04-22T19:46:55.733Z,24.36
2019-04-22T19:47:38.268Z,24.41
2019-04-22T19:47:43.603Z,24.39
2019-04-22T19:48:08.349Z,24.43
2019-04-22T19:48:30.900Z,24.43
2019-04-22T19:48:45.207Z,24.48
2019-04-22T19:49:13.634Z,24.48
2019-04-22T19:49:58.007Z,24.48
2019-04-22T19:50:16.291Z,24.48
2019-04-22T19:50:44.647Z,24.48
2019-04-22T19:51:04.508Z,24.45
2019-04-22T19:51:27.895Z,24.45
2019-04-22T19:51:56.057Z,24.48
2019-04-22T19:52:35.587Z,24.46
2019-04-22T19:53:01.678Z,24.45
2019-04-22T19:53:26.172Z,24.41
2019-04-22T19:53:46.966Z,24.39
2019-04-22T19:54:02.836Z,24.38
2019-04-22T19:54:29.007Z,24.38
2019-04-22T19:54:57.315Z,24.38
2019-04-22T19:55:18.198Z,24.37
2019-04-22T19:55:45.025Z,24.36
2019-04-22T19:55:53.763Z,24.39
2019-04-22T19:56:20.484Z,24.37
2019-04-22T19:56:40.376Z,24.39
2019-04-22T19:57:08.611Z,24.35
2019-04-22T19:57:34.439Z,24.34
2019-04-22T19:57:54.563Z,24.36
2019-04-22T19:58:47.713Z,24.34
2019-04-22T19:59:32.229Z,24.33
2019-04-22T20:33:08.727Z,25.23
2019-04-22T20:33:48.225Z,25.27
2019-04-22T20:34:04.733Z,25.33
2019-04-22T20:34:24.018Z,25.37
2019-04-22T20:34:46.000Z,25.40
2019-04-22T20:35:32.984Z,25.44
2019-04-22T20:36:44.712Z,25.43
2019-04-22T20:37:15.113Z,25.36
2019-04-22T20:38:49.526Z,25.29
2019-04-22T20:39:10.927Z,25.32
2019-04-22T20:39:43.788Z,25.35
2019-04-22T21:13:05.280Z,24.67
2019-04-22T21:13:29.136Z,24.78
2019-04-22T21:13:56.114Z,24.87
2019-04-22T21:14:14.779Z,24.96
2019-04-22T21:14:44.080Z,25.04
2019-04-22T21:16:31.853Z,25.04
2019-04-22T21:29:29.484Z,24.97
2019-04-22T21:29:47.210Z,25.01
2019-04-22T21:30:14.444Z,25.10
2019-04-22T21:30:37.553Z,25.16
2019-04-22T21:30:58.319Z,25.22
2019-04-22T21:31:29.616Z,25.27
2019-04-22T21:42:09.402Z,26.04
2019-04-22T21:42:30.673Z,25.42
2019-04-22T21:42:54.159Z,25.24
2019-04-22T21:45:03.334Z,25.90
2019-04-22T21:45:23.883Z,25.99
2019-04-22T21:45:58.691Z,26.07
2019-04-22T21:46:16.498Z,26.20
2019-04-22T21:46:42.344Z,26.29
2019-04-22T21:47:10.506Z,26.39
